Time;durP1;ratioP1;P1;durP2;ratioP2;P2;SDS_P1;SDS_P2;PMS_P1;PMS_P2;Temp;Humidity;BMP_temperature;BMP_pressure;BME280_temperature;BME280_humidity;BME280_pressure;Samples;Min_cycle;Max_cycle;Signal;HPM_P1;HPM_P2
2024/01/21 00:02:23;;;;;;;15.75;8.27;;;-6.00;99.90;;;;;;5069716;28;20027;-79
2024/01/21 00:04:49;;;;;;;15.93;9.10;;;-5.80;99.90;;;;;;5066300;28;20029;-77
2024/01/21 00:07:15;;;;;;;22.85;9.05;;;-5.70;99.90;;;;;;5050616;28;20028;-78
2024/01/21 00:09:41;;;;;;;14.73;8.82;;;-5.70;99.90;;;;;;5032523;28;20163;-78
2024/01/21 00:12:06;;;;;;;24.63;8.13;;;-5.50;99.90;;;;;;5032051;28;20124;-76
2024/01/21 00:14:32;;;;;;;23.33;10.43;;;-5.60;99.90;;;;;;5039941;28;20118;-76
2024/01/21 00:16:58;;;;;;;19.35;9.65;;;-5.60;99.90;;;;;;5051779;28;20028;-73
2024/01/21 00:19:23;;;;;;;20.92;9.18;;;-5.80;99.90;;;;;;5057194;28;20345;-76
2024/01/21 00:21:49;;;;;;;17.55;8.60;;;-5.80;99.90;;;;;;5031808;28;20470;-75
2024/01/21 00:24:15;;;;;;;22.33;9.38;;;-5.80;99.90;;;;;;5052157;28;20025;-74
2024/01/21 00:26:40;;;;;;;21.85;9.40;;;-5.80;99.90;;;;;;5055398;28;20032;-74
2024/01/21 00:29:06;;;;;;;17.92;9.10;;;-5.80;99.90;;;;;;5055842;28;20180;-73
2024/01/21 00:31:34;;;;;;;22.45;9.07;;;-5.90;99.90;;;;;;5061308;28;20068;-73
2024/01/21 00:34:00;;;;;;;19.08;9.48;;;-5.90;99.90;;;;;;5061058;28;20081;-73
2024/01/21 00:36:27;;;;;;;18.65;9.20;;;-5.90;99.90;;;;;;5056847;28;20048;-73
2024/01/21 00:38:54;;;;;;;16.30;8.40;;;-6.00;99.90;;;;;;5052639;28;20017;-72
2024/01/21 00:41:20;;;;;;;21.10;8.27;;;-6.10;99.90;;;;;;5033981;28;20032;-74
2024/01/21 00:43:46;;;;;;;18.05;8.43;;;-6.10;99.90;;;;;;5052647;28;20052;-73
2024/01/21 00:46:11;;;;;;;21.63;8.75;;;-5.50;99.90;;;;;;5049346;28;20056;-73
2024/01/21 00:48:38;;;;;;;18.58;7.85;;;-4.60;99.90;;;;;;5049405;28;20025;-74
2024/01/21 00:51:04;;;;;;;15.00;8.02;;;-6.00;99.90;;;;;;5049319;28;20029;-73
2024/01/21 00:53:30;;;;;;;20.27;8.23;;;-5.80;99.90;;;;;;5049893;28;20037;-73
2024/01/21 00:55:56;;;;;;;14.80;8.80;;;-6.30;99.90;;;;;;5052643;28;20131;-72
2024/01/21 00:58:21;;;;;;;20.48;8.68;;;-6.30;99.90;;;;;;5051781;28;20420;-72
2024/01/21 01:00:47;;;;;;;11.48;6.65;;;-6.20;99.90;;;;;;5051085;28;20029;-73
2024/01/21 01:03:12;;;;;;;14.27;6.25;;;-6.10;99.90;;;;;;5050651;28;20074;-72
2024/01/21 01:05:38;;;;;;;14.75;7.53;;;-6.10;99.90;;;;;;5049585;28;20025;-74
2024/01/21 01:08:04;;;;;;;16.33;7.15;;;-6.10;99.90;;;;;;5053514;28;20100;-75
2024/01/21 01:10:30;;;;;;;17.13;7.47;;;-6.00;99.90;;;;;;5053581;28;20036;-72
2024/01/21 01:12:56;;;;;;;14.15;7.13;;;-6.10;99.90;;;;;;5048698;28;20021;-76
2024/01/21 01:15:21;;;;;;;16.15;7.38;;;-6.10;99.90;;;;;;5049027;28;20028;-77
2024/01/21 01:17:47;;;;;;;11.25;5.85;;;-6.10;99.90;;;;;;5030985;28;20106;-76
2024/01/21 01:20:13;;;;;;;16.13;6.57;;;-6.20;99.90;;;;;;5031016;28;20025;-74
2024/01/21 01:22:39;;;;;;;13.73;7.35;;;-5.60;99.90;;;;;;5049394;28;20104;-74
2024/01/21 01:25:05;;;;;;;13.32;6.10;;;-6.40;99.90;;;;;;5031324;28;20033;-76
2024/01/21 01:27:30;;;;;;;13.57;6.93;;;-6.50;99.90;;;;;;5049899;28;20046;-75
2024/01/21 01:29:56;;;;;;;14.82;6.28;;;-6.40;99.90;;;;;;5049090;28;20571;-75
2024/01/21 01:32:22;;;;;;;12.88;5.88;;;-6.40;99.90;;;;;;5031035;28;20516;-75
2024/01/21 01:34:49;;;;;;;10.57;6.45;;;-6.20;99.90;;;;;;5040264;28;20036;-74
2024/01/21 01:37:15;;;;;;;10.70;6.20;;;-6.00;99.90;;;;;;5069179;28;20021;-74
2024/01/21 01:39:41;;;;;;;12.48;5.95;;;-4.60;99.90;;;;;;5068362;28;20114;-76
2024/01/21 01:42:06;;;;;;;15.35;6.00;;;-6.00;99.90;;;;;;5068562;28;20131;-77
2024/01/21 01:44:32;;;;;;;14.57;6.38;;;-4.50;99.90;;;;;;5050810;28;20036;-75
2024/01/21 01:46:58;;;;;;;11.23;6.53;;;-6.00;99.90;;;;;;5054725;28;20042;-74
2024/01/21 01:49:27;;;;;;;12.90;6.25;;;-6.00;99.90;;;;;;5053388;28;20024;-77
2024/01/21 01:51:54;;;;;;;13.00;7.70;;;-6.10;99.90;;;;;;5068522;28;20025;-76
2024/01/21 01:54:23;;;;;;;17.20;7.35;;;-6.10;99.90;;;;;;5058500;28;20040;-76
2024/01/21 01:56:49;;;;;;;14.17;7.47;;;-6.20;99.90;;;;;;5072552;28;20063;-75
2024/01/21 01:59:18;;;;;;;12.43;7.10;;;-6.20;99.90;;;;;;5072370;28;20044;-74
2024/01/21 02:01:44;;;;;;;15.60;6.95;;;-6.30;99.90;;;;;;5071660;28;20027;-75
2024/01/21 02:04:11;;;;;;;14.45;6.07;;;-5.30;99.90;;;;;;5068886;28;20626;-74
2024/01/21 02:06:38;;;;;;;14.85;6.80;;;-6.00;99.90;;;;;;5068468;28;20036;-76
2024/01/21 02:09:04;;;;;;;10.65;6.15;;;-5.80;99.90;;;;;;5051788;28;20475;-74
2024/01/21 02:11:29;;;;;;;12.40;7.13;;;-6.00;99.90;;;;;;5050476;28;20021;-74
2024/01/21 02:13:55;;;;;;;14.55;7.80;;;-6.10;99.90;;;;;;5067856;28;20033;-74
2024/01/21 02:16:21;;;;;;;11.27;6.50;;;-6.20;99.90;;;;;;5068703;28;20024;-75
2024/01/21 02:18:49;;;;;;;12.98;6.35;;;-6.20;99.90;;;;;;5072695;28;20368;-77
2024/01/21 02:21:15;;;;;;;11.90;5.63;;;-6.20;99.90;;;;;;5076079;28;20094;-75
2024/01/21 02:23:40;;;;;;;14.70;7.32;;;-4.90;99.90;;;;;;5054097;28;20279;-74
2024/01/21 02:26:06;;;;;;;13.15;6.57;;;-6.30;99.90;;;;;;5072431;28;20020;-75
2024/01/21 02:28:32;;;;;;;11.77;7.53;;;-6.30;99.90;;;;;;5071517;28;20048;-74
2024/01/21 02:30:57;;;;;;;13.40;5.93;;;-6.40;99.90;;;;;;5071657;28;20040;-74
2024/01/21 02:33:23;;;;;;;16.17;6.13;;;-6.50;99.90;;;;;;5073004;28;20032;-76
2024/01/21 02:35:48;;;;;;;16.27;7.25;;;-6.50;99.90;;;;;;5053684;28;20473;-75
2024/01/21 02:38:14;;;;;;;12.82;6.35;;;-6.40;99.90;;;;;;5053693;28;20351;-75
2024/01/21 02:40:40;;;;;;;11.90;5.88;;;-6.40;99.90;;;;;;5071491;28;20366;-77
2024/01/21 02:43:07;;;;;;;15.77;7.18;;;-6.40;99.90;;;;;;5053004;28;20664;-74
2024/01/21 02:45:33;;;;;;;15.35;6.30;;;-6.50;99.90;;;;;;5071389;28;20393;-76
2024/01/21 02:47:58;;;;;;;15.00;6.28;;;-6.40;99.90;;;;;;5048032;28;20482;-78
2024/01/21 02:50:24;;;;;;;12.52;6.03;;;-6.30;99.90;;;;;;5051869;28;20095;-78
2024/01/21 02:52:50;;;;;;;9.63;5.97;;;-6.20;99.90;;;;;;5033994;28;20030;-78
2024/01/21 02:55:16;;;;;;;13.52;7.25;;;-6.20;99.90;;;;;;5051573;28;20032;-77
2024/01/21 02:57:41;;;;;;;14.40;5.93;;;-6.30;99.90;;;;;;5033453;28;20025;-77
2024/01/21 03:00:07;;;;;;;16.60;5.68;;;-6.50;99.90;;;;;;5033933;28;20028;-76
2024/01/21 03:02:33;;;;;;;12.05;6.55;;;-6.60;99.90;;;;;;5051512;28;20155;-77
2024/01/21 03:04:59;;;;;;;9.68;5.28;;;-6.70;99.90;;;;;;5033602;28;20493;-77
2024/01/21 03:07:24;;;;;;;11.05;5.32;;;-6.70;99.90;;;;;;5051322;28;20084;-77
2024/01/21 03:09:50;;;;;;;8.75;5.35;;;-6.30;99.90;;;;;;5052228;28;20036;-76
2024/01/21 03:12:16;;;;;;;10.30;5.57;;;-6.80;99.90;;;;;;5033378;28;20065;-77
2024/01/21 03:14:41;;;;;;;11.52;5.47;;;-5.70;99.90;;;;;;5039971;28;20066;-77
2024/01/21 03:17:08;;;;;;;11.00;5.35;;;-6.50;99.90;;;;;;5052985;28;20373;-76
2024/01/21 03:19:33;;;;;;;12.43;5.82;;;-6.40;99.90;;;;;;5071412;28;20481;-76
2024/01/21 03:22:00;;;;;;;11.20;5.82;;;-6.30;99.90;;;;;;5053330;28;20031;-77
2024/01/21 03:24:26;;;;;;;11.00;5.68;;;-6.50;99.90;;;;;;5071594;28;20275;-76
2024/01/21 03:26:52;;;;;;;9.63;4.97;;;-6.50;99.90;;;;;;5053032;28;20549;-76
2024/01/21 03:29:17;;;;;;;10.77;5.18;;;-6.70;99.90;;;;;;5053144;28;20028;-77
2024/01/21 03:31:43;;;;;;;9.75;5.32;;;-6.60;99.90;;;;;;5084836;28;20044;-77
2024/01/21 03:34:09;;;;;;;12.95;6.22;;;-6.60;99.90;;;;;;5091262;28;20122;-76
2024/01/21 03:36:34;;;;;;;10.57;4.88;;;-6.60;99.90;;;;;;5091384;28;20089;-76
2024/01/21 03:39:00;;;;;;;11.90;6.13;;;-6.70;99.90;;;;;;5090126;28;20099;-76
2024/01/21 03:41:25;;;;;;;10.77;5.32;;;-6.70;99.90;;;;;;5090253;28;20048;-77
2024/01/21 03:43:51;;;;;;;7.53;5.25;;;-6.60;99.90;;;;;;5090810;28;20094;-78
2024/01/21 03:46:18;;;;;;;11.88;5.88;;;-6.50;99.90;;;;;;5089971;28;20507;-76
2024/01/21 03:48:44;;;;;;;9.98;5.20;;;-6.40;99.90;;;;;;5091328;28;20377;-76
2024/01/21 03:51:10;;;;;;;13.77;5.90;;;-6.30;99.90;;;;;;5090103;28;20042;-77
2024/01/21 03:53:39;;;;;;;8.38;5.45;;;-6.40;99.90;;;;;;5089662;28;20032;-77
2024/01/21 03:56:06;;;;;;;10.05;5.00;;;-6.50;99.90;;;;;;5089942;28;20085;-77
2024/01/21 03:58:31;;;;;;;11.57;5.53;;;-6.50;99.90;;;;;;5089295;28;20081;-76
2024/01/21 04:00:57;;;;;;;10.35;5.53;;;-6.40;99.90;;;;;;5090827;28;20016;-76
2024/01/21 04:03:23;;;;;;;12.35;5.00;;;-6.40;99.90;;;;;;5089488;28;20032;-76
2024/01/21 04:05:49;;;;;;;9.82;4.80;;;-6.60;99.90;;;;;;5089537;28;20016;-77
2024/01/21 04:08:14;;;;;;;8.82;4.97;;;-6.20;99.90;;;;;;5089430;28;20031;-78
2024/01/21 04:10:40;;;;;;;12.40;5.53;;;-6.10;99.90;;;;;;5089427;28;20460;-78
2024/01/21 04:13:06;;;;;;;8.38;4.90;;;-3.50;99.90;;;;;;5090306;28;20054;-77
2024/01/21 04:15:31;;;;;;;8.68;5.15;;;-4.20;99.90;;;;;;5089809;28;20081;-76
2024/01/21 04:17:57;;;;;;;8.48;5.25;;;-6.00;99.90;;;;;;5089257;28;20024;-76
2024/01/21 04:20:23;;;;;;;12.60;5.32;;;-6.10;99.90;;;;;;5089423;28;20031;-76
2024/01/21 04:22:48;;;;;;;12.52;5.10;;;-6.20;99.90;;;;;;5090618;28;20081;-76
2024/01/21 04:25:14;;;;;;;9.65;4.80;;;-5.60;99.90;;;;;;5089248;28;20024;-77
2024/01/21 04:27:40;;;;;;;11.18;5.57;;;-6.30;99.90;;;;;;5088889;28;20022;-76
2024/01/21 04:30:06;;;;;;;12.63;5.13;;;-4.50;99.90;;;;;;5085936;28;20520;-76
2024/01/21 04:32:32;;;;;;;12.77;5.93;;;-6.30;99.90;;;;;;5052226;28;20056;-76
2024/01/21 04:34:57;;;;;;;10.60;5.68;;;-6.30;99.90;;;;;;5052139;28;20467;-76
2024/01/21 04:37:23;;;;;;;11.98;5.70;;;-6.30;99.90;;;;;;5069884;28;20021;-76
2024/01/21 04:39:49;;;;;;;8.98;5.32;;;-6.30;99.90;;;;;;5052347;28;20473;-77
2024/01/21 04:42:14;;;;;;;10.18;5.85;;;-6.20;99.90;;;;;;5051683;28;20093;-76
2024/01/21 04:44:40;;;;;;;9.40;4.97;;;-6.10;99.90;;;;;;5051825;28;20111;-77
2024/01/21 04:47:05;;;;;;;9.73;5.70;;;-6.20;99.90;;;;;;5052029;28;20131;-76
2024/01/21 04:49:31;;;;;;;11.90;5.43;;;-6.20;99.90;;;;;;5052130;28;20025;-76
2024/01/21 04:51:57;;;;;;;12.55;6.03;;;-6.20;99.90;;;;;;5051972;28;20401;-76
2024/01/21 04:54:22;;;;;;;10.30;5.00;;;-6.20;99.90;;;;;;5051805;28;20033;-77
2024/01/21 04:56:48;;;;;;;9.45;5.00;;;-6.00;99.90;;;;;;5051869;28;20063;-78
2024/01/21 04:59:14;;;;;;;8.23;4.68;;;-5.90;99.90;;;;;;5069365;28;20035;-78
2024/01/21 05:01:40;;;;;;;11.05;5.60;;;-5.90;99.90;;;;;;5051445;28;20188;-76
2024/01/21 05:04:06;;;;;;;9.38;5.00;;;-6.00;99.90;;;;;;5069838;28;20017;-76
2024/01/21 05:06:31;;;;;;;8.82;5.63;;;-6.00;99.90;;;;;;5069736;28;20028;-77
2024/01/21 05:08:57;;;;;;;9.75;5.50;;;-5.90;99.90;;;;;;5051817;28;20490;-76
2024/01/21 05:11:23;;;;;;;10.23;5.10;;;-5.90;99.90;;;;;;5051723;28;20032;-77
2024/01/21 05:13:49;;;;;;;8.70;5.00;;;-5.80;99.90;;;;;;5051536;28;20036;-77
2024/01/21 05:16:15;;;;;;;9.25;4.60;;;-5.80;99.90;;;;;;5051387;28;20029;-76
2024/01/21 05:18:40;;;;;;;12.55;5.47;;;-5.70;99.90;;;;;;5051443;28;20051;-77
2024/01/21 05:21:06;;;;;;;8.10;4.88;;;-5.20;99.90;;;;;;5051626;28;20021;-76
2024/01/21 05:23:35;;;;;;;8.52;5.07;;;-5.80;99.90;;;;;;5051647;28;20496;-77
2024/01/21 05:26:01;;;;;;;10.88;4.72;;;-5.80;99.90;;;;;;5051676;28;20117;-76
2024/01/21 05:28:26;;;;;;;10.00;4.60;;;-5.80;99.90;;;;;;5069806;28;20051;-76
2024/01/21 05:30:52;;;;;;;11.02;5.07;;;-5.80;99.90;;;;;;5069870;28;20052;-76
2024/01/21 05:33:17;;;;;;;8.25;4.53;;;-4.90;99.90;;;;;;5088131;28;20088;-76
2024/01/21 05:35:43;;;;;;;11.90;5.65;;;-5.70;99.90;;;;;;5089497;28;20077;-76
2024/01/21 05:38:09;;;;;;;7.72;4.47;;;-5.80;99.90;;;;;;5089717;28;20081;-76
2024/01/21 05:40:35;;;;;;;12.73;5.22;;;-5.80;99.90;;;;;;5090076;28;20031;-76
2024/01/21 05:43:01;;;;;;;12.55;5.30;;;-5.60;99.90;;;;;;5089271;28;20024;-76
2024/01/21 05:45:27;;;;;;;11.60;6.43;;;-5.80;99.90;;;;;;5088210;28;20028;-76
2024/01/21 05:47:53;;;;;;;13.23;6.53;;;-5.90;99.90;;;;;;5088354;28;20034;-77
2024/01/21 05:50:19;;;;;;;11.10;5.55;;;-5.80;99.90;;;;;;5088254;28;20354;-77
2024/01/21 05:52:44;;;;;;;11.68;5.80;;;-5.70;99.90;;;;;;5087861;28;20126;-76
2024/01/21 05:55:10;;;;;;;12.98;6.70;;;-5.90;99.90;;;;;;5091057;28;20028;-77
2024/01/21 05:57:36;;;;;;;17.05;8.10;;;-6.00;99.90;;;;;;5091620;28;20024;-76
2024/01/21 06:00:02;;;;;;;11.23;5.85;;;-6.00;99.90;;;;;;5091765;28;20631;-77
2024/01/21 06:02:27;;;;;;;18.88;7.95;;;-6.00;99.90;;;;;;5093439;28;20055;-77
2024/01/21 06:04:53;;;;;;;17.58;7.22;;;-5.90;99.90;;;;;;5092150;28;20177;-77
2024/01/21 06:07:18;;;;;;;13.02;6.35;;;-5.90;99.90;;;;;;5091886;28;20084;-77
2024/01/21 06:09:46;;;;;;;14.88;7.13;;;-6.00;99.90;;;;;;5091902;28;20107;-76
2024/01/21 06:12:11;;;;;;;18.30;8.00;;;-6.20;99.90;;;;;;5091260;28;20020;-76
2024/01/21 06:14:37;;;;;;;21.70;10.15;;;-6.10;99.90;;;;;;5091485;28;20039;-76
2024/01/21 06:17:03;;;;;;;20.67;9.57;;;-6.00;99.90;;;;;;5093044;28;20468;-76
2024/01/21 06:19:28;;;;;;;20.30;8.95;;;-6.00;99.90;;;;;;5091882;28;20092;-77
2024/01/21 06:21:54;;;;;;;18.15;8.80;;;-5.90;99.90;;;;;;5091776;28;20024;-79
2024/01/21 06:24:20;;;;;;;18.75;9.60;;;-6.00;99.90;;;;;;5091585;28;20055;-77
2024/01/21 06:26:46;;;;;;;15.15;7.32;;;-5.60;99.90;;;;;;5091151;28;20442;-77
2024/01/21 06:29:12;;;;;;;17.70;7.65;;;-6.10;99.90;;;;;;5091176;28;20024;-76
2024/01/21 06:31:38;;;;;;;14.25;6.63;;;-6.20;99.90;;;;;;5091069;28;20492;-77
2024/01/21 06:34:04;;;;;;;11.65;6.25;;;-4.50;99.90;;;;;;5091004;28;20515;-77
2024/01/21 06:36:30;;;;;;;16.23;7.70;;;-5.90;99.90;;;;;;5091340;28;20086;-77
2024/01/21 06:38:56;;;;;;;14.88;7.50;;;-5.80;99.90;;;;;;5091161;28;20500;-76
2024/01/21 06:41:21;;;;;;;16.35;6.15;;;-5.80;99.90;;;;;;5091179;28;20358;-76
2024/01/21 06:43:48;;;;;;;13.35;5.75;;;-6.00;99.90;;;;;;5090725;28;20525;-77
2024/01/21 06:46:15;;;;;;;17.27;8.15;;;-6.10;99.90;;;;;;5096481;28;20130;-78
2024/01/21 06:48:41;;;;;;;16.85;8.10;;;-5.00;99.90;;;;;;5094478;28;20070;-78
2024/01/21 06:51:11;;;;;;;19.10;7.70;;;-5.80;99.90;;;;;;5091878;28;20044;-78
2024/01/21 06:53:38;;;;;;;14.25;7.32;;;-6.00;99.90;;;;;;5091773;28;20142;-78
2024/01/21 06:56:07;;;;;;;15.60;8.75;;;-6.40;99.90;;;;;;5091935;28;20024;-76
2024/01/21 06:58:36;;;;;;;;;;;-6.60;99.90;;;;;;5091441;28;20465;-78
2024/01/21 07:01:02;;;;;;;12.80;6.65;;;-6.80;99.90;;;;;;5090946;28;19904;-76
2024/01/21 07:03:28;;;;;;;14.18;7.00;;;-7.00;99.90;;;;;;5091415;28;20036;-78
2024/01/21 07:05:54;;;;;;;14.63;7.97;;;-7.10;99.90;;;;;;5091910;28;20087;-78
2024/01/21 07:08:20;;;;;;;13.15;6.85;;;-7.20;99.90;;;;;;5090721;28;20116;-77
2024/01/21 07:10:45;;;;;;;20.77;8.40;;;-7.30;99.90;;;;;;5091238;28;20038;-78
2024/01/21 07:13:11;;;;;;;15.00;7.95;;;-7.20;99.90;;;;;;5091235;28;20500;-78
2024/01/21 07:15:37;;;;;;;18.85;7.93;;;-7.30;99.90;;;;;;5091352;28;20481;-78
2024/01/21 07:18:03;;;;;;;17.63;8.05;;;-7.20;99.90;;;;;;5090897;28;20024;-77
2024/01/21 07:20:28;;;;;;;16.95;8.20;;;-7.20;99.90;;;;;;5090759;28;20024;-77
2024/01/21 07:22:55;;;;;;;14.25;6.93;;;-7.20;99.90;;;;;;5091070;28;20351;-79
2024/01/21 07:25:22;;;;;;;14.80;7.40;;;-7.20;99.90;;;;;;5091813;28;20313;-78
2024/01/21 07:27:48;;;;;;;16.85;6.97;;;-7.10;99.90;;;;;;5091069;28;20028;-78
2024/01/21 07:30:14;;;;;;;16.80;7.85;;;-7.00;99.90;;;;;;5090460;28;20064;-77
2024/01/21 07:32:40;;;;;;;16.42;7.95;;;-7.10;99.90;;;;;;5091901;28;20031;-76
2024/01/21 07:35:08;;;;;;;15.80;7.97;;;-7.00;99.90;;;;;;5090250;28;20032;-78
2024/01/21 07:37:34;;;;;;;21.33;8.68;;;-7.00;99.90;;;;;;5090410;28;20090;-76
2024/01/21 07:40:01;;;;;;;16.05;6.95;;;-7.00;99.90;;;;;;5090316;28;20108;-78
2024/01/21 07:42:27;;;;;;;37.38;13.63;;;-6.80;99.90;;;;;;5091401;28;20570;-77
2024/01/21 07:44:52;;;;;;;47.55;20.75;;;-6.70;99.90;;;;;;5089969;28;20115;-78
2024/01/21 07:47:18;;;;;;;19.27;9.38;;;-6.60;99.90;;;;;;5090258;28;20053;-77
2024/01/21 07:49:44;;;;;;;20.92;9.20;;;-6.60;99.90;;;;;;5093148;28;20024;-78
2024/01/21 07:52:10;;;;;;;27.38;13.77;;;-6.50;99.90;;;;;;5091462;28;20028;-79
2024/01/21 07:54:35;;;;;;;24.30;10.93;;;-6.40;99.90;;;;;;5091221;28;20059;-79
2024/01/21 07:57:01;;;;;;;22.45;9.52;;;-6.30;99.90;;;;;;5090957;28;20453;-78
2024/01/21 07:59:27;;;;;;;19.98;8.27;;;-6.20;99.90;;;;;;5091330;28;20028;-79
2024/01/21 08:01:52;;;;;;;18.20;8.75;;;-6.10;99.90;;;;;;5091227;28;20020;-79
2024/01/21 08:04:18;;;;;;;20.35;9.80;;;-5.90;99.90;;;;;;5092763;28;20362;-78
2024/01/21 08:06:43;;;;;;;23.08;10.45;;;-5.00;99.90;;;;;;5092066;28;20034;-79
2024/01/21 08:09:09;;;;;;;20.38;9.35;;;-5.70;99.90;;;;;;5092522;28;20514;-79
2024/01/21 08:11:35;;;;;;;31.27;14.43;;;-5.50;99.90;;;;;;5092478;28;20023;-78
2024/01/21 08:14:00;;;;;;;24.63;12.45;;;-5.50;99.90;;;;;;5093017;28;20043;-79
2024/01/21 08:16:26;;;;;;;21.55;10.52;;;-5.40;99.90;;;;;;5093407;28;20028;-79
2024/01/21 08:18:52;;;;;;;16.85;8.38;;;-5.20;99.90;;;;;;5093042;28;20020;-80
2024/01/21 08:21:17;;;;;;;21.50;8.30;;;-5.10;99.90;;;;;;5093985;28;20023;-80
2024/01/21 08:23:43;;;;;;;13.13;8.13;;;-4.90;99.90;;;;;;5095316;28;20028;-79
2024/01/21 08:26:09;;;;;;;18.52;9.23;;;-4.70;99.90;;;;;;5090480;28;20261;-77
2024/01/21 08:28:37;;;;;;;19.95;9.82;;;-4.50;99.90;;;;;;5090905;28;20285;-75
2024/01/21 08:31:03;;;;;;;19.27;10.07;;;-4.40;99.90;;;;;;5097135;28;20558;-80
2024/01/21 08:33:29;;;;;;;15.98;9.25;;;-4.30;99.90;;;;;;5097659;28;20058;-81
2024/01/21 08:35:54;;;;;;;22.27;10.05;;;-4.10;99.90;;;;;;5096045;28;20083;-80
2024/01/21 08:38:20;;;;;;;18.52;8.80;;;-4.00;99.90;;;;;;5099082;28;20091;-80
2024/01/21 08:40:46;;;;;;;21.05;11.32;;;-4.00;99.90;;;;;;5099076;28;20032;-80
2024/01/21 08:43:11;;;;;;;19.75;9.75;;;-3.80;99.90;;;;;;5089357;28;20028;-76
2024/01/21 08:45:37;;;;;;;19.90;9.38;;;-3.90;99.90;;;;;;5093877;28;20023;-75
2024/01/21 08:48:03;;;;;;;21.30;10.70;;;-3.70;99.90;;;;;;5097208;28;20066;-75
2024/01/21 08:50:29;;;;;;;21.33;11.43;;;-3.60;99.90;;;;;;5095126;28;20082;-75
2024/01/21 08:52:55;;;;;;;17.30;9.38;;;-3.40;99.90;;;;;;5095576;28;20040;-76
2024/01/21 08:55:20;;;;;;;19.02;9.82;;;-3.30;99.90;;;;;;5100904;28;20065;-76
2024/01/21 08:57:47;;;;;;;19.52;10.15;;;-3.20;99.90;;;;;;5100475;28;20078;-75
2024/01/21 09:00:13;;;;;;;24.20;11.38;;;-3.10;99.90;;;;;;5100139;28;20312;-76
2024/01/21 09:02:39;;;;;;;23.25;12.45;;;-3.00;99.90;;;;;;5095336;28;20020;-75
2024/01/21 09:05:05;;;;;;;20.17;10.82;;;-2.90;99.90;;;;;;5086334;28;20081;-76
2024/01/21 09:07:31;;;;;;;23.85;10.88;;;-2.80;99.90;;;;;;5089447;28;20027;-75
2024/01/21 09:09:57;;;;;;;18.25;10.13;;;-1.90;99.90;;;;;;5077589;28;20089;-76
2024/01/21 09:12:22;;;;;;;20.63;10.00;;;-2.60;99.90;;;;;;5083418;28;20023;-76
2024/01/21 09:14:48;;;;;;;20.15;9.95;;;-2.50;99.90;;;;;;5091977;28;20044;-76
2024/01/21 09:17:14;;;;;;;20.25;10.15;;;-2.30;99.90;;;;;;5110737;28;20303;-76
2024/01/21 09:19:39;;;;;;;17.05;9.07;;;-2.20;99.90;;;;;;5091033;28;20092;-76
2024/01/21 09:22:05;;;;;;;15.70;8.70;;;-2.00;99.90;;;;;;5092740;28;20035;-75
2024/01/21 09:24:31;;;;;;;17.00;8.02;;;-1.90;99.90;;;;;;5095884;28;20184;-76
2024/01/21 09:26:57;;;;;;;17.20;8.45;;;-0.90;99.90;;;;;;5091204;28;20614;-77
2024/01/21 09:29:23;;;;;;;17.80;9.73;;;-1.80;99.90;;;;;;5091739;28;20270;-76
2024/01/21 09:31:55;;;;;;;17.38;8.27;;;-1.60;99.90;;;;;;5081256;28;20051;-76
2024/01/21 09:34:22;;;;;;;16.25;9.02;;;-1.50;99.90;;;;;;5052406;28;20043;-76
2024/01/21 09:36:48;;;;;;;13.05;7.38;;;-1.60;99.90;;;;;;5043901;28;20024;-76
2024/01/21 09:39:13;;;;;;;17.65;8.68;;;-1.70;99.90;;;;;;5063500;28;20094;-76
2024/01/21 09:41:47;;;;;;;16.83;7.80;;;-1.40;99.90;;;;;;5081544;28;20017;-76
2024/01/21 09:44:13;;;;;;;13.90;7.68;;;-1.30;99.90;;;;;;5065589;28;20032;-76
2024/01/21 09:46:38;;;;;;;15.40;7.72;;;-1.10;99.90;;;;;;5065799;28;20092;-76
2024/01/21 09:49:06;;;;;;;14.13;7.00;;;-0.90;99.90;;;;;;5057408;28;20032;-76
2024/01/21 09:51:36;;;;;;;14.20;7.10;;;-0.80;99.90;;;;;;5062524;28;20017;-76
2024/01/21 09:54:05;;;;;;;13.18;7.30;;;-0.70;99.90;;;;;;5051964;28;20042;-76
2024/01/21 09:56:31;;;;;;;11.32;6.55;;;-0.70;99.90;;;;;;5064789;28;20186;-75
2024/01/21 09:58:57;;;;;;;13.90;7.85;;;-0.60;99.90;;;;;;5064635;28;20348;-77
2024/01/21 10:01:26;;;;;;;15.38;9.40;;;-0.50;99.90;;;;;;5063169;28;20402;-76
2024/01/21 10:03:55;;;;;;;12.82;7.45;;;-0.70;99.90;;;;;;5055788;28;20012;-75
2024/01/21 10:06:24;;;;;;;15.83;6.97;;;-0.60;99.90;;;;;;5065640;28;20217;-78
2024/01/21 10:08:50;;;;;;;;;;;-0.50;99.90;;;;;;5051999;28;20206;-76
2024/01/21 10:11:19;;;;;;;14.82;7.22;;;-0.30;99.90;;;;;;5057614;28;19910;-77
2024/01/21 10:13:45;;;;;;;11.52;6.20;;;0.00;99.90;;;;;;5071016;28;20033;-77
2024/01/21 10:16:12;;;;;;;10.45;5.85;;;0.30;99.90;;;;;;5044410;28;20024;-76
2024/01/21 10:18:38;;;;;;;12.88;6.93;;;0.10;99.90;;;;;;5049257;28;20029;-76
2024/01/21 10:21:05;;;;;;;8.02;5.70;;;0.20;99.90;;;;;;5066769;28;20013;-76
2024/01/21 10:23:32;;;;;;;11.95;6.60;;;0.50;99.90;;;;;;5044821;28;20013;-77
2024/01/21 10:26:01;;;;;;;14.30;7.35;;;0.50;99.90;;;;;;5061962;28;20033;-76
2024/01/21 10:28:30;;;;;;;12.75;6.30;;;0.30;99.90;;;;;;5040690;28;20581;-76
2024/01/21 10:30:58;;;;;;;;;;;0.40;99.90;;;;;;5070163;28;20033;-77
2024/01/21 10:33:25;;;;;;;30.25;13.77;;;0.50;99.90;;;;;;5048385;28;19912;-76
2024/01/21 10:35:55;;;;;;;16.60;8.60;;;0.40;99.90;;;;;;5053516;28;20033;-75
2024/01/21 10:38:23;;;;;;;21.70;9.68;;;0.60;99.90;;;;;;5061340;28;20091;-76
2024/01/21 10:40:50;;;;;;;22.83;11.37;;;0.50;99.90;;;;;;5064157;28;20652;-76
2024/01/21 10:43:16;;;;;;;15.65;9.48;;;0.80;99.90;;;;;;5066768;28;20029;-76
2024/01/21 10:45:45;;;;;;;13.10;8.18;;;1.00;99.90;;;;;;5053612;28;20173;-76
2024/01/21 10:48:15;;;;;;;12.10;6.72;;;1.00;99.90;;;;;;5065860;28;20104;-76
2024/01/21 10:50:44;;;;;;;11.13;6.82;;;0.80;99.90;;;;;;5033157;28;20341;-76
2024/01/21 10:53:11;;;;;;;;;;;0.90;99.90;;;;;;5052104;28;20040;-75
2024/01/21 10:55:39;;;;;;;17.38;8.73;;;1.00;99.90;;;;;;5042408;28;19917;-76
2024/01/21 10:58:07;;;;;;;10.48;6.45;;;1.30;99.90;;;;;;5046508;28;20182;-76
2024/01/21 11:01:00;;;;;;;12.48;6.70;;;1.40;99.90;;;;;;5077411;28;20059;-76
2024/01/21 11:03:31;;;;;;;13.38;7.07;;;1.70;99.90;;;;;;5050160;28;20080;-76
2024/01/21 11:06:00;;;;;;;9.40;6.65;;;1.90;99.90;;;;;;5061092;28;20434;-76
2024/01/21 11:08:27;;;;;;;11.35;6.03;;;1.70;99.90;;;;;;5061625;28;20047;-75
2024/01/21 11:11:21;;;;;;;9.98;5.90;;;1.20;99.90;;;;;;5044004;28;20095;-75
2024/01/21 11:13:52;;;;;;;14.60;7.28;;;0.70;99.90;;;;;;5061572;28;20043;-75
2024/01/21 11:16:30;;;;;;;12.60;6.63;;;0.50;99.90;;;;;;5061718;28;20076;-76
2024/01/21 11:19:06;;;;;;;15.63;7.50;;;0.50;99.90;;;;;;5060131;28;20047;-76
2024/01/21 11:21:34;;;;;;;14.27;7.20;;;0.50;99.90;;;;;;5061130;28;20025;-76
2024/01/21 11:24:03;;;;;;;14.05;7.65;;;0.50;99.90;;;;;;5058552;28;20024;-76
2024/01/21 11:26:33;;;;;;;14.75;7.72;;;0.50;99.90;;;;;;5042267;28;20028;-75
2024/01/21 11:29:24;;;;;;;12.20;7.18;;;0.50;99.90;;;;;;5034361;28;20120;-76
2024/01/21 11:31:51;;;;;;;16.65;9.05;;;0.50;99.90;;;;;;5060322;28;20265;-76
2024/01/21 11:34:17;;;;;;;16.55;9.23;;;0.60;99.90;;;;;;5058290;28;20220;-76
2024/01/21 11:36:44;;;;;;;19.02;9.48;;;0.50;99.90;;;;;;5081217;28;20021;-75
2024/01/21 11:39:10;;;;;;;19.77;9.75;;;0.40;99.90;;;;;;5081093;28;20020;-76
2024/01/21 11:41:38;;;;;;;19.92;10.73;;;0.70;99.90;;;;;;5072687;28;20066;-75
2024/01/21 11:44:16;;;;;;;17.00;9.00;;;0.30;99.90;;;;;;5052376;28;20017;-74
2024/01/21 11:46:43;;;;;;;17.02;9.35;;;0.30;99.90;;;;;;5068673;28;20091;-71
2024/01/21 11:49:09;;;;;;;19.90;9.65;;;0.00;99.90;;;;;;5079951;28;20036;-71
2024/01/21 11:51:39;;;;;;;18.23;9.70;;;0.20;99.90;;;;;;5077907;28;20013;-71
2024/01/21 11:54:12;;;;;;;18.48;9.07;;;0.20;99.90;;;;;;5059709;28;20051;-74
2024/01/21 11:56:38;;;;;;;17.88;8.27;;;0.30;99.90;;;;;;5056004;28;20274;-76
2024/01/21 11:59:08;;;;;;;18.05;8.52;;;0.30;99.90;;;;;;5050017;28;20275;-76
2024/01/21 12:01:36;;;;;;;17.40;9.05;;;0.30;99.90;;;;;;5050120;28;20017;-76
2024/01/21 12:04:03;;;;;;;18.13;8.30;;;0.40;99.90;;;;;;5031888;28;20419;-76
2024/01/21 12:06:43;;;;;;;17.45;8.10;;;0.40;99.90;;;;;;5065757;28;20036;-77
2024/01/21 12:09:16;;;;;;;16.65;7.97;;;0.50;99.90;;;;;;5070645;28;20496;-77
2024/01/21 12:11:42;;;;;;;14.32;8.05;;;0.60;99.90;;;;;;5069508;28;20050;-77
2024/01/21 12:14:11;;;;;;;14.38;8.10;;;0.70;99.90;;;;;;5052064;28;20036;-76
2024/01/21 12:16:54;;;;;;;15.70;7.30;;;0.90;99.90;;;;;;5051648;28;20024;-77
2024/01/21 12:19:19;;;;;;;15.88;7.85;;;1.50;99.90;;;;;;5051337;28;20033;-76
2024/01/21 12:21:45;;;;;;;16.48;8.77;;;1.10;99.90;;;;;;5069814;28;20036;-77
2024/01/21 12:24:11;;;;;;;12.38;6.70;;;1.30;99.90;;;;;;5047016;28;20039;-77
2024/01/21 12:26:37;;;;;;;12.48;6.78;;;1.30;99.90;;;;;;5048003;28;20067;-77
2024/01/21 12:29:10;;;;;;;10.30;6.03;;;1.70;99.90;;;;;;5051282;28;20124;-76
2024/01/21 12:31:40;;;;;;;10.10;6.00;;;1.40;99.90;;;;;;5074983;28;20056;-71
2024/01/21 12:34:08;;;;;;;12.27;6.75;;;1.40;99.90;;;;;;5077835;28;20035;-74
2024/01/21 12:37:00;;;;;;;13.30;6.40;;;1.40;99.90;;;;;;5062539;28;20033;-72
2024/01/21 12:40:02;;;;;;;11.23;6.53;;;1.50;99.90;;;;;;5057186;28;20029;-72